sensor_id;sensor_type;location;lat;lon;timestamp;P1;durP1;ratioP1;P2;durP2;ratioP2
19095;SDS011;9680;52.520;13.332;2023-03-12T00:00:39;6.10;;;1.60;;
19095;SDS011;9680;52.520;13.332;2023-03-12T00:03:06;5.17;;;1.30;;
19095;SDS011;9680;52.520;13.332;2023-03-12T00:05:36;3.20;;;1.20;;
19095;SDS011;9680;52.520;13.332;2023-03-12T00:08:04;5.73;;;1.20;;
19095;SDS011;9680;52.520;13.332;2023-03-12T00:10:30;6.30;;;1.20;;
19095;SDS011;9680;52.520;13.332;2023-03-12T00:12:57;4.53;;;1.50;;
19095;SDS011;9680;52.520;13.332;2023-03-12T00:15:24;6.43;;;1.67;;
19095;SDS011;9680;52.520;13.332;2023-03-12T00:17:51;4.27;;;1.50;;
19095;SDS011;9680;52.520;13.332;2023-03-12T00:20:18;5.00;;;1.30;;
19095;SDS011;9680;52.520;13.332;2023-03-12T00:22:48;4.37;;;1.47;;
19095;SDS011;9680;52.520;13.332;2023-03-12T00:25:16;5.17;;;1.20;;
19095;SDS011;9680;52.520;13.332;2023-03-12T00:27:42;4.00;;;1.33;;
19095;SDS011;9680;52.520;13.332;2023-03-12T00:30:10;5.03;;;1.47;;
19095;SDS011;9680;52.520;13.332;2023-03-12T00:32:37;2.80;;;1.27;;
19095;SDS011;9680;52.520;13.332;2023-03-12T00:35:04;3.90;;;1.50;;
19095;SDS011;9680;52.520;13.332;2023-03-12T00:37:32;3.83;;;1.33;;
19095;SDS011;9680;52.520;13.332;2023-03-12T00:40:00;5.17;;;1.43;;
19095;SDS011;9680;52.520;13.332;2023-03-12T00:42:29;5.27;;;1.60;;
19095;SDS011;9680;52.520;13.332;2023-03-12T00:44:57;5.47;;;1.33;;
19095;SDS011;9680;52.520;13.332;2023-03-12T00:47:24;3.63;;;1.50;;
19095;SDS011;9680;52.520;13.332;2023-03-12T00:49:51;5.57;;;1.40;;
19095;SDS011;9680;52.520;13.332;2023-03-12T00:52:17;5.60;;;1.30;;
19095;SDS011;9680;52.520;13.332;2023-03-12T00:54:44;8.27;;;1.57;;
19095;SDS011;9680;52.520;13.332;2023-03-12T00:57:12;4.80;;;1.63;;
19095;SDS011;9680;52.520;13.332;2023-03-12T00:59:39;3.77;;;1.40;;
19095;SDS011;9680;52.520;13.332;2023-03-12T01:02:07;3.43;;;1.40;;
19095;SDS011;9680;52.520;13.332;2023-03-12T01:04:34;5.20;;;1.47;;
19095;SDS011;9680;52.520;13.332;2023-03-12T01:07:01;7.07;;;1.60;;
19095;SDS011;9680;52.520;13.332;2023-03-12T01:09:28;5.67;;;1.40;;
19095;SDS011;9680;52.520;13.332;2023-03-12T01:11:54;2.93;;;1.40;;
19095;SDS011;9680;52.520;13.332;2023-03-12T01:14:23;6.60;;;1.40;;
19095;SDS011;9680;52.520;13.332;2023-03-12T01:16:49;3.60;;;1.30;;
19095;SDS011;9680;52.520;13.332;2023-03-12T01:19:16;3.87;;;1.50;;
19095;SDS011;9680;52.520;13.332;2023-03-12T01:21:43;6.60;;;1.57;;
19095;SDS011;9680;52.520;13.332;2023-03-12T01:24:10;7.87;;;1.63;;
19095;SDS011;9680;52.520;13.332;2023-03-12T01:26:37;3.07;;;1.20;;
19095;SDS011;9680;52.520;13.332;2023-03-12T01:29:03;3.40;;;1.33;;
19095;SDS011;9680;52.520;13.332;2023-03-12T01:31:32;3.10;;;1.23;;
19095;SDS011;9680;52.520;13.332;2023-03-12T01:33:58;7.37;;;1.60;;
19095;SDS011;9680;52.520;13.332;2023-03-12T01:36:26;3.87;;;1.57;;
19095;SDS011;9680;52.520;13.332;2023-03-12T01:38:57;6.10;;;1.50;;
19095;SDS011;9680;52.520;13.332;2023-03-12T01:41:25;5.33;;;1.77;;
19095;SDS011;9680;52.520;13.332;2023-03-12T01:43:54;2.67;;;1.23;;
19095;SDS011;9680;52.520;13.332;2023-03-12T01:46:22;5.20;;;1.53;;
19095;SDS011;9680;52.520;13.332;2023-03-12T01:48:55;3.93;;;1.50;;
19095;SDS011;9680;52.520;13.332;2023-03-12T01:51:24;6.43;;;2.10;;
19095;SDS011;9680;52.520;13.332;2023-03-12T01:53:55;6.20;;;1.77;;
19095;SDS011;9680;52.520;13.332;2023-03-12T01:56:26;3.43;;;1.53;;
19095;SDS011;9680;52.520;13.332;2023-03-12T01:58:56;5.77;;;1.80;;
19095;SDS011;9680;52.520;13.332;2023-03-12T02:01:28;4.67;;;1.77;;
19095;SDS011;9680;52.520;13.332;2023-03-12T02:03:57;5.33;;;1.80;;
19095;SDS011;9680;52.520;13.332;2023-03-12T02:06:28;7.93;;;1.70;;
19095;SDS011;9680;52.520;13.332;2023-03-12T02:09:00;4.37;;;1.43;;
19095;SDS011;9680;52.520;13.332;2023-03-12T02:11:30;3.87;;;1.60;;
19095;SDS011;9680;52.520;13.332;2023-03-12T02:13:57;4.37;;;2.13;;
19095;SDS011;9680;52.520;13.332;2023-03-12T02:16:24;4.63;;;1.70;;
19095;SDS011;9680;52.520;13.332;2023-03-12T02:18:51;6.03;;;1.70;;
19095;SDS011;9680;52.520;13.332;2023-03-12T02:21:23;4.57;;;1.70;;
19095;SDS011;9680;52.520;13.332;2023-03-12T02:23:55;6.60;;;1.63;;
19095;SDS011;9680;52.520;13.332;2023-03-12T02:26:31;6.43;;;1.60;;
19095;SDS011;9680;52.520;13.332;2023-03-12T02:29:01;6.43;;;1.60;;
19095;SDS011;9680;52.520;13.332;2023-03-12T02:31:28;5.27;;;1.47;;
19095;SDS011;9680;52.520;13.332;2023-03-12T02:34:00;3.87;;;1.90;;
19095;SDS011;9680;52.520;13.332;2023-03-12T02:36:27;6.57;;;1.60;;
19095;SDS011;9680;52.520;13.332;2023-03-12T02:38:54;6.27;;;1.60;;
19095;SDS011;9680;52.520;13.332;2023-03-12T02:41:22;9.50;;;2.00;;
19095;SDS011;9680;52.520;13.332;2023-03-12T02:43:55;2.93;;;1.50;;
19095;SDS011;9680;52.520;13.332;2023-03-12T02:46:26;10.30;;;1.70;;
19095;SDS011;9680;52.520;13.332;2023-03-12T02:48:54;2.83;;;1.43;;
19095;SDS011;9680;52.520;13.332;2023-03-12T02:51:22;2.53;;;1.50;;
19095;SDS011;9680;52.520;13.332;2023-03-12T02:53:49;2.27;;;1.37;;
19095;SDS011;9680;52.520;13.332;2023-03-12T02:56:19;3.70;;;1.53;;
19095;SDS011;9680;52.520;13.332;2023-03-12T02:58:47;2.60;;;1.23;;
19095;SDS011;9680;52.520;13.332;2023-03-12T03:01:16;5.93;;;1.70;;
19095;SDS011;9680;52.520;13.332;2023-03-12T03:03:43;4.17;;;1.43;;
19095;SDS011;9680;52.520;13.332;2023-03-12T03:06:10;5.60;;;1.60;;
19095;SDS011;9680;52.520;13.332;2023-03-12T03:08:37;4.93;;;1.73;;
19095;SDS011;9680;52.520;13.332;2023-03-12T03:11:04;6.37;;;1.50;;
19095;SDS011;9680;52.520;13.332;2023-03-12T03:13:32;7.73;;;1.73;;
19095;SDS011;9680;52.520;13.332;2023-03-12T03:15:59;5.73;;;1.77;;
19095;SDS011;9680;52.520;13.332;2023-03-12T03:18:29;3.83;;;1.53;;
19095;SDS011;9680;52.520;13.332;2023-03-12T03:20:58;7.70;;;1.93;;
19095;SDS011;9680;52.520;13.332;2023-03-12T03:23:27;8.43;;;1.70;;
19095;SDS011;9680;52.520;13.332;2023-03-12T03:25:54;3.27;;;1.60;;
19095;SDS011;9680;52.520;13.332;2023-03-12T03:28:22;7.20;;;1.70;;
19095;SDS011;9680;52.520;13.332;2023-03-12T03:30:51;5.83;;;2.00;;
19095;SDS011;9680;52.520;13.332;2023-03-12T03:33:19;6.53;;;1.70;;
19095;SDS011;9680;52.520;13.332;2023-03-12T03:35:47;3.17;;;1.70;;
19095;SDS011;9680;52.520;13.332;2023-03-12T03:38:16;5.63;;;1.93;;
19095;SDS011;9680;52.520;13.332;2023-03-12T03:40:43;5.40;;;1.77;;
19095;SDS011;9680;52.520;13.332;2023-03-12T03:43:10;4.77;;;2.00;;
19095;SDS011;9680;52.520;13.332;2023-03-12T03:45:37;5.10;;;1.90;;
19095;SDS011;9680;52.520;13.332;2023-03-12T03:48:04;5.93;;;1.83;;
19095;SDS011;9680;52.520;13.332;2023-03-12T03:50:32;6.17;;;1.80;;
19095;SDS011;9680;52.520;13.332;2023-03-12T03:53:01;3.03;;;1.73;;
19095;SDS011;9680;52.520;13.332;2023-03-12T03:55:28;4.83;;;1.90;;
19095;SDS011;9680;52.520;13.332;2023-03-12T03:57:55;6.23;;;1.73;;
19095;SDS011;9680;52.520;13.332;2023-03-12T04:00:22;5.37;;;1.97;;
19095;SDS011;9680;52.520;13.332;2023-03-12T04:02:51;6.87;;;1.97;;
19095;SDS011;9680;52.520;13.332;2023-03-12T04:05:19;7.13;;;1.80;;
19095;SDS011;9680;52.520;13.332;2023-03-12T04:07:48;7.47;;;1.83;;
19095;SDS011;9680;52.520;13.332;2023-03-12T04:10:22;6.20;;;2.37;;
19095;SDS011;9680;52.520;13.332;2023-03-12T04:12:50;5.40;;;1.73;;
19095;SDS011;9680;52.520;13.332;2023-03-12T04:15:18;4.93;;;1.90;;
19095;SDS011;9680;52.520;13.332;2023-03-12T04:17:47;5.57;;;2.20;;
19095;SDS011;9680;52.520;13.332;2023-03-12T04:20:14;8.07;;;2.50;;
19095;SDS011;9680;52.520;13.332;2023-03-12T04:22:41;4.77;;;2.30;;
19095;SDS011;9680;52.520;13.332;2023-03-12T04:25:09;7.40;;;2.53;;
19095;SDS011;9680;52.520;13.332;2023-03-12T04:27:37;5.90;;;2.27;;
19095;SDS011;9680;52.520;13.332;2023-03-12T04:30:05;6.43;;;2.87;;
19095;SDS011;9680;52.520;13.332;2023-03-12T04:32:34;7.20;;;2.97;;
19095;SDS011;9680;52.520;13.332;2023-03-12T04:35:01;7.17;;;2.80;;
19095;SDS011;9680;52.520;13.332;2023-03-12T04:37:30;7.07;;;2.67;;
19095;SDS011;9680;52.520;13.332;2023-03-12T04:39:59;9.70;;;2.70;;
19095;SDS011;9680;52.520;13.332;2023-03-12T04:42:27;9.03;;;3.03;;
19095;SDS011;9680;52.520;13.332;2023-03-12T04:44:55;10.23;;;3.20;;
19095;SDS011;9680;52.520;13.332;2023-03-12T04:47:22;5.67;;;2.50;;
19095;SDS011;9680;52.520;13.332;2023-03-12T04:49:49;11.90;;;3.33;;
19095;SDS011;9680;52.520;13.332;2023-03-12T04:52:16;12.07;;;3.07;;
19095;SDS011;9680;52.520;13.332;2023-03-12T04:54:43;6.67;;;3.00;;
19095;SDS011;9680;52.520;13.332;2023-03-12T04:57:10;6.83;;;2.90;;
19095;SDS011;9680;52.520;13.332;2023-03-12T04:59:37;8.70;;;3.17;;
19095;SDS011;9680;52.520;13.332;2023-03-12T05:02:05;10.70;;;3.00;;
19095;SDS011;9680;52.520;13.332;2023-03-12T05:04:32;6.47;;;2.47;;
19095;SDS011;9680;52.520;13.332;2023-03-12T05:06:59;5.70;;;2.73;;
19095;SDS011;9680;52.520;13.332;2023-03-12T05:09:27;7.53;;;2.83;;
19095;SDS011;9680;52.520;13.332;2023-03-12T05:11:53;6.03;;;2.73;;
19095;SDS011;9680;52.520;13.332;2023-03-12T05:14:21;9.17;;;3.20;;
19095;SDS011;9680;52.520;13.332;2023-03-12T05:16:48;7.13;;;2.70;;
19095;SDS011;9680;52.520;13.332;2023-03-12T05:19:17;8.33;;;2.80;;
19095;SDS011;9680;52.520;13.332;2023-03-12T05:21:44;6.00;;;2.33;;
19095;SDS011;9680;52.520;13.332;2023-03-12T05:24:11;7.50;;;2.50;;
19095;SDS011;9680;52.520;13.332;2023-03-12T05:26:38;5.20;;;2.40;;
19095;SDS011;9680;52.520;13.332;2023-03-12T05:29:11;8.77;;;2.50;;
19095;SDS011;9680;52.520;13.332;2023-03-12T05:31:38;12.03;;;2.57;;
19095;SDS011;9680;52.520;13.332;2023-03-12T05:34:06;7.67;;;3.00;;
19095;SDS011;9680;52.520;13.332;2023-03-12T05:36:39;5.00;;;2.10;;
19095;SDS011;9680;52.520;13.332;2023-03-12T05:39:06;7.00;;;2.63;;
19095;SDS011;9680;52.520;13.332;2023-03-12T05:41:34;9.83;;;2.40;;
19095;SDS011;9680;52.520;13.332;2023-03-12T05:44:09;7.03;;;2.70;;
19095;SDS011;9680;52.520;13.332;2023-03-12T05:46:38;5.30;;;2.27;;
19095;SDS011;9680;52.520;13.332;2023-03-12T05:49:05;5.77;;;2.40;;
19095;SDS011;9680;52.520;13.332;2023-03-12T05:51:33;12.07;;;3.47;;
19095;SDS011;9680;52.520;13.332;2023-03-12T05:54:02;7.10;;;2.63;;
19095;SDS011;9680;52.520;13.332;2023-03-12T05:56:28;7.03;;;2.73;;
19095;SDS011;9680;52.520;13.332;2023-03-12T05:58:56;7.93;;;2.67;;
19095;SDS011;9680;52.520;13.332;2023-03-12T06:01:25;6.53;;;2.30;;
19095;SDS011;9680;52.520;13.332;2023-03-12T06:03:55;5.10;;;2.33;;
19095;SDS011;9680;52.520;13.332;2023-03-12T06:06:23;5.23;;;2.53;;
19095;SDS011;9680;52.520;13.332;2023-03-12T06:08:51;7.77;;;2.50;;
19095;SDS011;9680;52.520;13.332;2023-03-12T06:11:19;6.83;;;2.50;;
19095;SDS011;9680;52.520;13.332;2023-03-12T06:13:46;7.00;;;2.37;;
19095;SDS011;9680;52.520;13.332;2023-03-12T06:16:15;11.97;;;2.70;;
19095;SDS011;9680;52.520;13.332;2023-03-12T06:18:44;6.43;;;2.57;;
19095;SDS011;9680;52.520;13.332;2023-03-12T06:21:12;5.67;;;2.40;;
19095;SDS011;9680;52.520;13.332;2023-03-12T06:23:40;9.27;;;2.30;;
19095;SDS011;9680;52.520;13.332;2023-03-12T06:26:12;5.77;;;2.33;;
19095;SDS011;9680;52.520;13.332;2023-03-12T06:28:40;9.67;;;2.70;;
19095;SDS011;9680;52.520;13.332;2023-03-12T06:31:08;5.77;;;2.23;;
19095;SDS011;9680;52.520;13.332;2023-03-12T06:33:34;6.03;;;2.23;;
19095;SDS011;9680;52.520;13.332;2023-03-12T06:36:02;6.83;;;2.40;;
19095;SDS011;9680;52.520;13.332;2023-03-12T06:38:30;9.60;;;2.43;;
19095;SDS011;9680;52.520;13.332;2023-03-12T06:40:58;11.47;;;2.63;;
19095;SDS011;9680;52.520;13.332;2023-03-12T06:43:27;5.53;;;2.30;;
19095;SDS011;9680;52.520;13.332;2023-03-12T06:45:57;4.43;;;1.73;;
19095;SDS011;9680;52.520;13.332;2023-03-12T06:48:25;7.20;;;2.10;;
19095;SDS011;9680;52.520;13.332;2023-03-12T06:50:53;10.23;;;2.70;;
19095;SDS011;9680;52.520;13.332;2023-03-12T06:53:21;7.50;;;2.50;;
19095;SDS011;9680;52.520;13.332;2023-03-12T06:55:50;8.23;;;2.57;;
19095;SDS011;9680;52.520;13.332;2023-03-12T06:58:17;8.17;;;2.70;;
19095;SDS011;9680;52.520;13.332;2023-03-12T07:00:44;5.60;;;2.00;;
19095;SDS011;9680;52.520;13.332;2023-03-12T07:03:12;6.90;;;2.23;;
19095;SDS011;9680;52.520;13.332;2023-03-12T07:05:42;6.70;;;2.20;;
19095;SDS011;9680;52.520;13.332;2023-03-12T07:08:10;10.97;;;2.80;;
19095;SDS011;9680;52.520;13.332;2023-03-12T07:10:37;7.17;;;2.63;;
19095;SDS011;9680;52.520;13.332;2023-03-12T07:13:03;6.60;;;2.60;;
19095;SDS011;9680;52.520;13.332;2023-03-12T07:15:30;5.77;;;2.40;;
19095;SDS011;9680;52.520;13.332;2023-03-12T07:17:58;6.33;;;2.90;;
19095;SDS011;9680;52.520;13.332;2023-03-12T07:20:26;9.07;;;2.47;;
19095;SDS011;9680;52.520;13.332;2023-03-12T07:22:53;9.23;;;2.57;;
19095;SDS011;9680;52.520;13.332;2023-03-12T07:25:20;5.67;;;2.17;;
19095;SDS011;9680;52.520;13.332;2023-03-12T07:27:47;12.83;;;2.73;;
19095;SDS011;9680;52.520;13.332;2023-03-12T07:30:14;5.57;;;2.77;;
19095;SDS011;9680;52.520;13.332;2023-03-12T07:32:41;6.40;;;2.77;;
19095;SDS011;9680;52.520;13.332;2023-03-12T07:35:08;10.83;;;2.67;;
19095;SDS011;9680;52.520;13.332;2023-03-12T07:37:36;5.80;;;2.50;;
19095;SDS011;9680;52.520;13.332;2023-03-12T07:40:04;10.70;;;2.30;;
19095;SDS011;9680;52.520;13.332;2023-03-12T07:42:32;5.13;;;2.30;;
19095;SDS011;9680;52.520;13.332;2023-03-12T07:44:59;5.80;;;2.70;;
19095;SDS011;9680;52.520;13.332;2023-03-12T07:47:26;5.00;;;2.47;;
19095;SDS011;9680;52.520;13.332;2023-03-12T07:49:52;7.70;;;2.50;;
19095;SDS011;9680;52.520;13.332;2023-03-12T07:52:19;7.40;;;2.80;;
19095;SDS011;9680;52.520;13.332;2023-03-12T07:54:49;4.03;;;2.13;;
19095;SDS011;9680;52.520;13.332;2023-03-12T07:57:16;6.53;;;2.47;;
19095;SDS011;9680;52.520;13.332;2023-03-12T07:59:43;9.63;;;2.63;;
19095;SDS011;9680;52.520;13.332;2023-03-12T08:02:11;7.00;;;2.27;;
19095;SDS011;9680;52.520;13.332;2023-03-12T08:04:37;5.40;;;2.20;;
19095;SDS011;9680;52.520;13.332;2023-03-12T08:07:04;6.03;;;2.00;;
19095;SDS011;9680;52.520;13.332;2023-03-12T08:09:31;8.23;;;2.70;;
19095;SDS011;9680;52.520;13.332;2023-03-12T08:12:00;4.93;;;2.20;;
19095;SDS011;9680;52.520;13.332;2023-03-12T08:14:27;7.70;;;2.20;;
19095;SDS011;9680;52.520;13.332;2023-03-12T08:16:55;5.97;;;2.20;;
19095;SDS011;9680;52.520;13.332;2023-03-12T08:19:22;6.23;;;2.27;;
19095;SDS011;9680;52.520;13.332;2023-03-12T08:21:49;5.87;;;2.37;;
19095;SDS011;9680;52.520;13.332;2023-03-12T08:24:17;5.93;;;2.40;;
19095;SDS011;9680;52.520;13.332;2023-03-12T08:26:45;5.40;;;2.27;;
19095;SDS011;9680;52.520;13.332;2023-03-12T08:29:14;6.57;;;2.40;;
19095;SDS011;9680;52.520;13.332;2023-03-12T08:31:41;8.03;;;2.37;;
19095;SDS011;9680;52.520;13.332;2023-03-12T08:34:08;7.90;;;2.40;;
19095;SDS011;9680;52.520;13.332;2023-03-12T08:36:34;8.27;;;2.10;;
19095;SDS011;9680;52.520;13.332;2023-03-12T08:39:02;5.93;;;2.10;;
19095;SDS011;9680;52.520;13.332;2023-03-12T08:41:29;5.87;;;2.27;;
19095;SDS011;9680;52.520;13.332;2023-03-12T08:43:55;5.10;;;1.87;;
19095;SDS011;9680;52.520;13.332;2023-03-12T08:46:24;7.87;;;2.20;;
19095;SDS011;9680;52.520;13.332;2023-03-12T08:48:50;6.50;;;2.13;;
19095;SDS011;9680;52.520;13.332;2023-03-12T08:51:17;6.50;;;2.10;;
19095;SDS011;9680;52.520;13.332;2023-03-12T08:53:44;6.73;;;1.87;;
19095;SDS011;9680;52.520;13.332;2023-03-12T08:56:11;5.97;;;1.80;;
19095;SDS011;9680;52.520;13.332;2023-03-12T08:58:38;5.93;;;2.10;;
19095;SDS011;9680;52.520;13.332;2023-03-12T09:01:07;5.03;;;2.10;;
19095;SDS011;9680;52.520;13.332;2023-03-12T09:03:35;6.13;;;2.10;;
19095;SDS011;9680;52.520;13.332;2023-03-12T09:06:04;6.80;;;1.80;;
19095;SDS011;9680;52.520;13.332;2023-03-12T09:08:33;7.07;;;1.90;;
19095;SDS011;9680;52.520;13.332;2023-03-12T09:11:00;6.17;;;1.23;;
19095;SDS011;9680;52.520;13.332;2023-03-12T09:13:28;2.67;;;1.30;;
19095;SDS011;9680;52.520;13.332;2023-03-12T09:15:57;5.67;;;1.90;;
19095;SDS011;9680;52.520;13.332;2023-03-12T09:18:25;4.30;;;1.30;;
19095;SDS011;9680;52.520;13.332;2023-03-12T09:21:08;3.97;;;1.60;;
19095;SDS011;9680;52.520;13.332;2023-03-12T09:23:35;14.60;;;1.60;;
19095;SDS011;9680;52.520;13.332;2023-03-12T09:28:51;2.37;;;1.30;;
19095;SDS011;9680;52.520;13.332;2023-03-12T09:31:18;4.93;;;1.50;;
19095;SDS011;9680;52.520;13.332;2023-03-12T09:33:45;5.10;;;1.20;;
19095;SDS011;9680;52.520;13.332;2023-03-12T09:36:14;4.07;;;1.47;;
19095;SDS011;9680;52.520;13.332;2023-03-12T09:38:40;4.13;;;1.30;;
19095;SDS011;9680;52.520;13.332;2023-03-12T09:41:12;5.13;;;1.80;;
19095;SDS011;9680;52.520;13.332;2023-03-12T09:43:44;6.17;;;1.17;;
19095;SDS011;9680;52.520;13.332;2023-03-12T09:46:17;8.83;;;1.17;;
19095;SDS011;9680;52.520;13.332;2023-03-12T09:48:49;9.67;;;1.23;;
19095;SDS011;9680;52.520;13.332;2023-03-12T09:51:21;4.60;;;0.93;;
19095;SDS011;9680;52.520;13.332;2023-03-12T09:53:52;2.87;;;1.10;;
19095;SDS011;9680;52.520;13.332;2023-03-12T09:56:24;4.73;;;1.27;;
19095;SDS011;9680;52.520;13.332;2023-03-12T09:58:52;3.07;;;0.90;;
19095;SDS011;9680;52.520;13.332;2023-03-12T10:01:36;3.37;;;0.80;;
19095;SDS011;9680;52.520;13.332;2023-03-12T10:07:07;9.57;;;1.73;;
19095;SDS011;9680;52.520;13.332;2023-03-12T10:09:54;2.30;;;0.90;;
19095;SDS011;9680;52.520;13.332;2023-03-12T10:12:37;1.63;;;1.00;;
19095;SDS011;9680;52.520;13.332;2023-03-12T10:15:16;4.80;;;1.20;;
19095;SDS011;9680;52.520;13.332;2023-03-12T10:17:56;3.10;;;1.30;;
19095;SDS011;9680;52.520;13.332;2023-03-12T10:23:33;2.73;;;1.40;;
19095;SDS011;9680;52.520;13.332;2023-03-12T10:26:09;3.83;;;1.30;;
19095;SDS011;9680;52.520;13.332;2023-03-12T10:28:41;7.23;;;1.50;;
19095;SDS011;9680;52.520;13.332;2023-03-12T10:31:12;6.33;;;1.50;;
19095;SDS011;9680;52.520;13.332;2023-03-12T10:33:46;2.50;;;1.10;;
19095;SDS011;9680;52.520;13.332;2023-03-12T10:36:17;6.80;;;1.90;;
19095;SDS011;9680;52.520;13.332;2023-03-12T10:38:47;4.80;;;1.60;;
19095;SDS011;9680;52.520;13.332;2023-03-12T10:41:16;4.70;;;1.20;;
19095;SDS011;9680;52.520;13.332;2023-03-12T10:43:45;4.47;;;1.33;;
19095;SDS011;9680;52.520;13.332;2023-03-12T10:49:23;3.23;;;1.40;;
19095;SDS011;9680;52.520;13.332;2023-03-12T10:51:53;3.50;;;1.20;;
19095;SDS011;9680;52.520;13.332;2023-03-12T10:54:26;3.40;;;1.07;;
19095;SDS011;9680;52.520;13.332;2023-03-12T10:56:55;2.40;;;0.80;;
19095;SDS011;9680;52.520;13.332;2023-03-12T10:59:24;9.30;;;3.90;;
19095;SDS011;9680;52.520;13.332;2023-03-12T11:01:57;3.47;;;1.20;;
19095;SDS011;9680;52.520;13.332;2023-03-12T11:04:25;3.67;;;1.13;;
19095;SDS011;9680;52.520;13.332;2023-03-12T11:07:04;2.70;;;1.37;;
19095;SDS011;9680;52.520;13.332;2023-03-12T11:10:02;6.80;;;1.00;;
19095;SDS011;9680;52.520;13.332;2023-03-12T11:12:49;4.33;;;1.13;;
19095;SDS011;9680;52.520;13.332;2023-03-12T11:15:26;5.00;;;1.30;;
19095;SDS011;9680;52.520;13.332;2023-03-12T11:20:46;3.20;;;1.30;;
19095;SDS011;9680;52.520;13.332;2023-03-12T11:23:15;7.03;;;1.70;;
19095;SDS011;9680;52.520;13.332;2023-03-12T11:25:51;7.30;;;1.50;;
19095;SDS011;9680;52.520;13.332;2023-03-12T11:28:21;2.63;;;1.20;;
19095;SDS011;9680;52.520;13.332;2023-03-12T11:30:51;5.50;;;1.50;;
19095;SDS011;9680;52.520;13.332;2023-03-12T11:33:22;8.77;;;1.50;;
19095;SDS011;9680;52.520;13.332;2023-03-12T11:35:51;2.33;;;1.33;;
19095;SDS011;9680;52.520;13.332;2023-03-12T11:38:30;4.27;;;1.43;;
19095;SDS011;9680;52.520;13.332;2023-03-12T11:41:07;3.27;;;1.60;;
19095;SDS011;9680;52.520;13.332;2023-03-12T11:43:52;9.70;;;1.60;;
19095;SDS011;9680;52.520;13.332;2023-03-12T11:47:01;6.33;;;1.57;;
19095;SDS011;9680;52.520;13.332;2023-03-12T11:49:42;3.30;;;1.90;;
19095;SDS011;9680;52.520;13.332;2023-03-12T11:52:23;5.13;;;1.70;;
19095;SDS011;9680;52.520;13.332;2023-03-12T11:55:00;5.83;;;1.93;;
19095;SDS011;9680;52.520;13.332;2023-03-12T11:57:39;6.03;;;1.87;;
19095;SDS011;9680;52.520;13.332;2023-03-12T12:00:14;3.53;;;1.80;;
19095;SDS011;9680;52.520;13.332;2023-03-12T12:02:48;7.07;;;2.00;;
19095;SDS011;9680;52.520;13.332;2023-03-12T12:05:30;5.63;;;1.60;;
19095;SDS011;9680;52.520;13.332;2023-03-12T12:08:08;5.43;;;2.00;;
19095;SDS011;9680;52.520;13.332;2023-03-12T12:10:48;6.00;;;1.80;;
19095;SDS011;9680;52.520;13.332;2023-03-12T12:13:28;3.83;;;1.83;;
19095;SDS011;9680;52.520;13.332;2023-03-12T12:16:04;4.43;;;1.97;;
19095;SDS011;9680;52.520;13.332;2023-03-12T12:18:47;4.73;;;1.70;;
19095;SDS011;9680;52.520;13.332;2023-03-12T12:21:37;11.20;;;1.90;;
19095;SDS011;9680;52.520;13.332;2023-03-12T12:24:22;4.10;;;1.60;;
19095;SDS011;9680;52.520;13.332;2023-03-12T12:27:10;3.27;;;1.57;;
19095;SDS011;9680;52.520;13.332;2023-03-12T12:30:11;4.73;;;1.80;;
19095;SDS011;9680;52.520;13.332;2023-03-12T12:33:01;6.33;;;1.90;;
19095;SDS011;9680;52.520;13.332;2023-03-12T12:35:43;3.67;;;1.90;;
19095;SDS011;9680;52.520;13.332;2023-03-12T12:38:23;5.23;;;1.70;;
19095;SDS011;9680;52.520;13.332;2023-03-12T12:41:09;4.47;;;2.00;;
19095;SDS011;9680;52.520;13.332;2023-03-12T12:43:50;6.30;;;2.00;;
19095;SDS011;9680;52.520;13.332;2023-03-12T12:46:29;5.80;;;2.03;;
19095;SDS011;9680;52.520;13.332;2023-03-12T12:49:20;2.40;;;1.60;;
19095;SDS011;9680;52.520;13.332;2023-03-12T12:54:33;2.77;;;1.50;;
19095;SDS011;9680;52.520;13.332;2023-03-12T12:57:17;5.00;;;1.40;;
19095;SDS011;9680;52.520;13.332;2023-03-12T13:00:02;2.70;;;1.37;;
19095;SDS011;9680;52.520;13.332;2023-03-12T13:02:53;6.60;;;1.57;;
19095;SDS011;9680;52.520;13.332;2023-03-12T13:05:24;6.20;;;1.60;;
19095;SDS011;9680;52.520;13.332;2023-03-12T13:11:21;2.40;;;1.40;;
19095;SDS011;9680;52.520;13.332;2023-03-12T13:16:50;4.40;;;1.90;;
19095;SDS011;9680;52.520;13.332;2023-03-12T13:19:39;3.27;;;1.60;;
19095;SDS011;9680;52.520;13.332;2023-03-12T13:22:17;3.37;;;1.53;;
19095;SDS011;9680;52.520;13.332;2023-03-12T13:24:53;3.80;;;1.43;;
19095;SDS011;9680;52.520;13.332;2023-03-12T13:27:35;4.43;;;1.90;;
19095;SDS011;9680;52.520;13.332;2023-03-12T13:33:19;4.20;;;1.83;;
19095;SDS011;9680;52.520;13.332;2023-03-12T13:36:09;5.53;;;1.90;;
19095;SDS011;9680;52.520;13.332;2023-03-12T13:38:52;3.17;;;1.23;;
19095;SDS011;9680;52.520;13.332;2023-03-12T13:41:32;2.63;;;1.60;;
19095;SDS011;9680;52.520;13.332;2023-03-12T13:46:56;5.53;;;1.40;;
19095;SDS011;9680;52.520;13.332;2023-03-12T13:49:25;3.93;;;1.50;;
19095;SDS011;9680;52.520;13.332;2023-03-12T13:51:57;3.60;;;1.80;;
19095;SDS011;9680;52.520;13.332;2023-03-12T13:54:48;4.43;;;1.70;;
19095;SDS011;9680;52.520;13.332;2023-03-12T13:57:30;2.73;;;1.43;;
19095;SDS011;9680;52.520;13.332;2023-03-12T14:00:05;4.53;;;1.50;;
19095;SDS011;9680;52.520;13.332;2023-03-12T14:02:43;5.97;;;1.57;;
19095;SDS011;9680;52.520;13.332;2023-03-12T14:05:18;2.03;;;1.20;;
19095;SDS011;9680;52.520;13.332;2023-03-12T14:11:15;2.20;;;1.20;;
19095;SDS011;9680;52.520;13.332;2023-03-12T14:14:12;3.73;;;1.40;;
19095;SDS011;9680;52.520;13.332;2023-03-12T14:17:11;2.53;;;1.10;;
19095;SDS011;9680;52.520;13.332;2023-03-12T14:19:58;4.77;;;1.20;;
19095;SDS011;9680;52.520;13.332;2023-03-12T14:22:30;2.33;;;1.10;;
19095;SDS011;9680;52.520;13.332;2023-03-12T14:25:00;3.13;;;1.27;;
19095;SDS011;9680;52.520;13.332;2023-03-12T14:27:35;2.43;;;1.00;;
19095;SDS011;9680;52.520;13.332;2023-03-12T14:30:06;2.97;;;1.27;;
19095;SDS011;9680;52.520;13.332;2023-03-12T14:32:38;2.77;;;1.10;;
19095;SDS011;9680;52.520;13.332;2023-03-12T14:35:11;2.50;;;1.20;;
19095;SDS011;9680;52.520;13.332;2023-03-12T14:37:43;3.93;;;1.40;;
19095;SDS011;9680;52.520;13.332;2023-03-12T14:40:21;1.80;;;0.90;;
19095;SDS011;9680;52.520;13.332;2023-03-12T14:42:52;1.67;;;1.00;;
19095;SDS011;9680;52.520;13.332;2023-03-12T14:45:20;3.50;;;1.10;;
19095;SDS011;9680;52.520;13.332;2023-03-12T14:47:51;3.30;;;1.20;;
19095;SDS011;9680;52.520;13.332;2023-03-12T14:50:20;1.47;;;0.87;;
19095;SDS011;9680;52.520;13.332;2023-03-12T14:52:49;2.10;;;0.97;;
19095;SDS011;9680;52.520;13.332;2023-03-12T14:55:18;4.27;;;1.17;;
19095;SDS011;9680;52.520;13.332;2023-03-12T14:57:46;3.67;;;1.30;;
19095;SDS011;9680;52.520;13.332;2023-03-12T15:00:22;2.93;;;1.10;;
19095;SDS011;9680;52.520;13.332;2023-03-12T15:03:23;3.87;;;1.40;;
19095;SDS011;9680;52.520;13.332;2023-03-12T15:05:54;3.33;;;1.13;;
19095;SDS011;9680;52.520;13.332;2023-03-12T15:08:23;1.40;;;1.00;;
19095;SDS011;9680;52.520;13.332;2023-03-12T15:33:05;3.03;;;1.30;;
19095;SDS011;9680;52.520;13.332;2023-03-12T15:35:34;2.73;;;1.30;;
19095;SDS011;9680;52.520;13.332;2023-03-12T15:38:01;3.83;;;1.63;;
19095;SDS011;9680;52.520;13.332;2023-03-12T15:40:29;2.53;;;1.40;;
19095;SDS011;9680;52.520;13.332;2023-03-12T15:42:57;3.87;;;1.50;;
19095;SDS011;9680;52.520;13.332;2023-03-12T15:45:31;5.50;;;1.50;;
19095;SDS011;9680;52.520;13.332;2023-03-12T15:48:01;2.77;;;1.40;;
19095;SDS011;9680;52.520;13.332;2023-03-12T15:50:33;3.63;;;1.53;;
19095;SDS011;9680;52.520;13.332;2023-03-12T15:53:03;6.30;;;1.80;;
19095;SDS011;9680;52.520;13.332;2023-03-12T15:55:32;6.07;;;1.93;;
19095;SDS011;9680;52.520;13.332;2023-03-12T15:58:00;7.63;;;2.03;;
19095;SDS011;9680;52.520;13.332;2023-03-12T16:00:27;4.77;;;1.80;;
19095;SDS011;9680;52.520;13.332;2023-03-12T16:02:56;4.63;;;1.87;;
19095;SDS011;9680;52.520;13.332;2023-03-12T16:05:26;5.73;;;2.00;;